createdAt,value
2022-12-28T00:00:10.768Z,50.885609
2022-12-28T00:01:10.703Z,50.885460
2022-12-28T00:02:10.812Z,50.885330
2022-12-28T00:03:10.699Z,50.885574
2022-12-28T00:04:10.783Z,50.885544
2022-12-28T00:05:10.695Z,50.885567
2022-12-28T00:06:10.670Z,50.885635
2022-12-28T00:07:10.665Z,50.885479
2022-12-28T00:08:10.617Z,50.885410
2022-12-28T00:09:10.768Z,50.885281
2022-12-28T00:10:10.681Z,50.885059
2022-12-28T00:11:18.687Z,50.885208
2022-12-28T00:12:11.643Z,50.885471
2022-12-28T00:13:10.613Z,50.885490
2022-12-28T00:14:10.611Z,50.885551
2022-12-28T00:15:10.662Z,50.885571
2022-12-28T00:16:10.670Z,50.885494
2022-12-28T00:17:10.589Z,50.885555
2022-12-28T00:18:10.586Z,50.885536
2022-12-28T00:19:10.622Z,50.885452
2022-12-28T00:20:10.674Z,50.885471
2022-12-28T00:21:10.580Z,50.885483
2022-12-28T00:22:10.593Z,50.885429
2022-12-28T00:23:10.612Z,50.885601
2022-12-28T00:24:10.580Z,50.885620
2022-12-28T00:25:10.572Z,50.885612
2022-12-28T00:26:10.601Z,50.885521
2022-12-28T00:27:10.566Z,50.885429
2022-12-28T00:28:10.564Z,50.885506
2022-12-28T00:29:10.557Z,50.885540
2022-12-28T00:30:10.522Z,50.885548
2022-12-28T00:31:10.666Z,50.885525
2022-12-28T00:32:10.527Z,50.885506
2022-12-28T00:33:10.511Z,50.885456
2022-12-28T00:34:10.501Z,50.885345
2022-12-28T00:35:10.518Z,50.885403
2022-12-28T00:36:10.485Z,50.885475
2022-12-28T00:37:13.171Z,50.885487
2022-12-28T00:38:11.483Z,50.885494
2022-12-28T00:39:10.505Z,50.885509
2022-12-28T00:40:10.487Z,50.885502
2022-12-28T00:41:10.466Z,50.885406
2022-12-28T00:42:10.613Z,50.885426
2022-12-28T00:43:10.456Z,50.885521
2022-12-28T00:44:10.496Z,50.885532
2022-12-28T00:45:10.489Z,50.885544
2022-12-28T00:46:10.528Z,50.885532
2022-12-28T00:47:10.463Z,50.885410
2022-12-28T00:48:10.493Z,50.885403
2022-12-28T00:49:10.453Z,50.885338
2022-12-28T00:50:10.459Z,50.885368
2022-12-28T00:51:10.408Z,50.885372
2022-12-28T00:52:10.472Z,50.885357
2022-12-28T00:53:10.401Z,50.885429
2022-12-28T00:54:10.385Z,50.885422
2022-12-28T00:55:10.424Z,50.885410
2022-12-28T00:56:10.429Z,50.885605
2022-12-28T00:57:10.403Z,50.885593
2022-12-28T00:58:10.372Z,50.885498
2022-12-28T00:59:10.555Z,50.885559
2022-12-28T01:00:10.417Z,50.885559
2022-12-28T01:01:10.456Z,50.885456
2022-12-28T01:02:10.428Z,50.885452
2022-12-28T01:03:10.356Z,50.885452
2022-12-28T01:04:10.401Z,50.885521
2022-12-28T01:05:10.325Z,50.885498
2022-12-28T01:06:10.340Z,50.885498
2022-12-28T01:07:10.366Z,50.885517
2022-12-28T01:08:10.339Z,50.885483
2022-12-28T01:09:10.347Z,50.885544
2022-12-28T01:10:10.346Z,50.885643
2022-12-28T01:11:10.328Z,50.885468
2022-12-28T01:12:10.347Z,50.885460
2022-12-28T01:13:10.313Z,50.885509
2022-12-28T01:14:10.315Z,50.885509
2022-12-28T01:15:10.344Z,50.885395
2022-12-28T01:16:10.322Z,50.885456
2022-12-28T01:17:10.329Z,50.885654
2022-12-28T01:18:10.275Z,50.885544
2022-12-28T01:19:10.299Z,50.885387
2022-12-28T01:20:10.309Z,50.885506
2022-12-28T01:21:10.410Z,50.885502
2022-12-28T01:22:10.275Z,50.885517
2022-12-28T01:23:10.256Z,50.885502
2022-12-28T01:24:10.270Z,50.885483
2022-12-28T01:25:10.265Z,50.885387
2022-12-28T01:26:10.263Z,50.885433
2022-12-28T01:27:10.247Z,50.885410
2022-12-28T01:28:10.220Z,50.885448
2022-12-28T01:29:10.272Z,50.885567
2022-12-28T01:30:10.223Z,50.885479
2022-12-28T01:31:10.246Z,50.885544
2022-12-28T01:32:10.315Z,50.885540
2022-12-28T01:33:10.251Z,50.885502
2022-12-28T01:34:10.202Z,50.885525
2022-12-28T01:35:10.177Z,50.885567
2022-12-28T01:36:10.216Z,50.885643
2022-12-28T01:37:10.315Z,50.885517
2022-12-28T01:38:10.164Z,50.885456
2022-12-28T01:39:10.275Z,50.885571
2022-12-28T01:40:10.192Z,50.885571
2022-12-28T01:41:10.146Z,50.885574
2022-12-28T01:42:10.181Z,50.885529
2022-12-28T01:43:10.784Z,50.885517
2022-12-28T01:44:10.173Z,50.885551
2022-12-28T01:45:10.134Z,50.885628
2022-12-28T01:46:10.124Z,50.885632
2022-12-28T01:47:10.121Z,50.885536
2022-12-28T01:48:11.168Z,50.885555
2022-12-28T01:49:10.160Z,50.885532
2022-12-28T01:50:10.099Z,50.885559
2022-12-28T01:51:10.121Z,50.885509
2022-12-28T01:52:10.111Z,50.885456
2022-12-28T01:53:10.115Z,50.885563
2022-12-28T01:54:10.119Z,50.885536
2022-12-28T01:55:10.085Z,50.885475
2022-12-28T01:56:10.702Z,50.885494
2022-12-28T01:57:10.071Z,50.885525
2022-12-28T01:58:10.087Z,50.885574
2022-12-28T01:59:10.192Z,50.885548
2022-12-28T02:00:10.061Z,50.885601
2022-12-28T02:01:10.805Z,50.885513
2022-12-28T02:02:10.197Z,50.885460
2022-12-28T02:03:10.053Z,50.885548
2022-12-28T02:04:11.072Z,50.885567
2022-12-28T02:05:10.006Z,50.885582
2022-12-28T02:06:10.098Z,50.885590
2022-12-28T02:07:10.016Z,50.885529
2022-12-28T02:08:09.969Z,50.885521
2022-12-28T02:09:10.037Z,50.885597
2022-12-28T02:10:44.412Z,50.885433
2022-12-28T02:11:10.996Z,50.885635
2022-12-28T02:12:09.958Z,50.885502
2022-12-28T02:13:10.021Z,50.885506
2022-12-28T02:14:09.986Z,50.885544
2022-12-28T02:15:10.031Z,50.885479
2022-12-28T02:16:09.975Z,50.885490
2022-12-28T02:17:10.019Z,50.885498
2022-12-28T02:18:09.931Z,50.885532
2022-12-28T02:19:09.975Z,50.885536
2022-12-28T02:20:11.048Z,50.885551
2022-12-28T02:21:10.032Z,50.885429
2022-12-28T02:22:09.949Z,50.885418
2022-12-28T02:23:09.948Z,50.885551
2022-12-28T02:24:09.974Z,50.885529
2022-12-28T02:25:12.646Z,50.885559
2022-12-28T02:26:09.923Z,50.885483
2022-12-28T02:27:09.907Z,50.885521
2022-12-28T02:28:09.883Z,50.885506
2022-12-28T02:29:09.938Z,50.885521
2022-12-28T02:30:09.912Z,50.885471
2022-12-28T02:31:09.915Z,50.885525
2022-12-28T02:32:09.903Z,50.885521
2022-12-28T02:33:09.893Z,50.885525
2022-12-28T02:34:09.859Z,50.885540
2022-12-28T02:35:09.977Z,50.885609
2022-12-28T02:36:16.155Z,50.885574
2022-12-28T02:37:11.013Z,50.885525
2022-12-28T02:38:09.835Z,50.885509
2022-12-28T02:39:09.898Z,50.885597
2022-12-28T02:40:09.990Z,50.885597
2022-12-28T02:41:09.835Z,50.885548
2022-12-28T02:42:09.854Z,50.885567
2022-12-28T02:43:09.828Z,50.885517
2022-12-28T02:44:09.833Z,50.885624
2022-12-28T02:45:09.833Z,50.885490
2022-12-28T02:46:10.663Z,50.885597
2022-12-28T02:47:09.766Z,50.885609
2022-12-28T02:48:09.795Z,50.885540
2022-12-28T02:49:09.806Z,50.885468
2022-12-28T02:50:09.812Z,50.885540
2022-12-28T02:51:09.769Z,50.885475
2022-12-28T02:52:09.781Z,50.885548
2022-12-28T02:53:09.787Z,50.885502
2022-12-28T02:54:09.783Z,50.885551
2022-12-28T02:55:09.783Z,50.885506
2022-12-28T02:56:09.797Z,50.885509
2022-12-28T02:57:09.767Z,50.885490
2022-12-28T02:58:09.717Z,50.885555
2022-12-28T02:59:09.741Z,50.885643
2022-12-28T03:00:09.762Z,50.885502
2022-12-28T03:01:09.890Z,50.885544
2022-12-28T03:02:09.818Z,50.885925
2022-12-28T03:03:09.786Z,50.885647
2022-12-28T03:04:09.738Z,50.885582
2022-12-28T03:05:09.734Z,50.885609
2022-12-28T03:06:09.676Z,50.885376
2022-12-28T03:07:09.707Z,50.885468
2022-12-28T03:08:09.684Z,50.885509
2022-12-28T03:09:09.687Z,50.885483
2022-12-28T03:10:09.662Z,50.885475
2022-12-28T03:11:09.667Z,50.885517
2022-12-28T03:12:09.625Z,50.885647
2022-12-28T03:13:10.632Z,50.885677
2022-12-28T03:14:09.672Z,50.885521
2022-12-28T03:15:09.648Z,50.885662
2022-12-28T03:16:09.650Z,50.885712
2022-12-28T03:17:09.607Z,50.885529
2022-12-28T03:18:09.645Z,50.885525
2022-12-28T03:19:09.617Z,50.885471
2022-12-28T03:20:09.646Z,50.885517
2022-12-28T03:21:09.625Z,50.885616
2022-12-28T03:22:09.610Z,50.885670
2022-12-28T03:23:09.584Z,50.885509
2022-12-28T03:24:09.664Z,50.885242
2022-12-28T03:25:09.598Z,50.885643
2022-12-28T03:26:09.530Z,50.885544
2022-12-28T03:27:09.553Z,50.885597
2022-12-28T03:28:09.634Z,50.885506
2022-12-28T03:29:09.551Z,50.885555
2022-12-28T03:30:09.575Z,50.885563
2022-12-28T03:31:09.566Z,50.885590
2022-12-28T03:32:09.533Z,50.885548
2022-12-28T03:33:09.534Z,50.885605
2022-12-28T03:34:09.544Z,50.885693
2022-12-28T03:35:09.515Z,50.885567
2022-12-28T03:36:09.535Z,50.885586
2022-12-28T03:37:09.511Z,50.885414
2022-12-28T03:38:09.482Z,50.885563
2022-12-28T03:39:09.522Z,50.885445
2022-12-28T03:40:09.535Z,50.885311
2022-12-28T03:41:09.487Z,50.885555
2022-12-28T03:42:09.450Z,50.885571
2022-12-28T03:43:09.424Z,50.885517
2022-12-28T03:44:09.437Z,50.885559
2022-12-28T03:45:09.472Z,50.885487
2022-12-28T03:46:09.511Z,50.885483
2022-12-28T03:47:09.418Z,50.885483
2022-12-28T03:48:09.420Z,50.885471
2022-12-28T03:49:09.455Z,50.885509
2022-12-28T03:50:09.436Z,50.885639
2022-12-28T03:51:09.450Z,50.885689
2022-12-28T03:52:09.389Z,50.885555
2022-12-28T03:53:09.375Z,50.885567
2022-12-28T03:54:09.424Z,50.885689
2022-12-28T03:55:09.433Z,50.885612
2022-12-28T03:56:09.364Z,50.885620
2022-12-28T03:57:09.413Z,50.885532
2022-12-28T03:58:09.398Z,50.885567
2022-12-28T03:59:09.379Z,50.885605
2022-12-28T04:00:09.359Z,50.885624
2022-12-28T04:01:09.439Z,50.885654
2022-12-28T04:02:09.421Z,50.885639
2022-12-28T04:03:09.374Z,50.885658
2022-12-28T04:04:09.345Z,50.885612
2022-12-28T04:05:09.352Z,50.885651
2022-12-28T04:06:09.300Z,50.885567
2022-12-28T04:07:09.318Z,50.885693
2022-12-28T04:08:09.304Z,50.885674
2022-12-28T04:09:09.277Z,50.885612
2022-12-28T04:10:09.307Z,50.885727
2022-12-28T04:11:09.328Z,50.885616
2022-12-28T04:12:09.255Z,50.885639
2022-12-28T04:13:09.299Z,50.885574
2022-12-28T04:14:11.166Z,50.885593
2022-12-28T04:15:09.252Z,50.885654
2022-12-28T04:16:09.342Z,50.885525
2022-12-28T04:17:09.248Z,50.885582
2022-12-28T04:18:09.231Z,50.885616
2022-12-28T04:19:09.194Z,50.885632
2022-12-28T04:20:09.219Z,50.885757
2022-12-28T04:21:09.232Z,50.885681
2022-12-28T04:22:09.219Z,50.885624
2022-12-28T04:23:09.204Z,50.885612
2022-12-28T04:24:09.208Z,50.885593
2022-12-28T04:25:09.183Z,50.885635
2022-12-28T04:26:09.159Z,50.885563
2022-12-28T04:27:09.212Z,50.885540
2022-12-28T04:28:09.158Z,50.885597
2022-12-28T04:29:09.180Z,50.885632
2022-12-28T04:30:09.153Z,50.885670
2022-12-28T04:31:09.144Z,50.885548
2022-12-28T04:32:09.143Z,50.885544
2022-12-28T04:33:09.338Z,50.885468
2022-12-28T04:34:09.096Z,50.885609
2022-12-28T04:35:09.137Z,50.885540
2022-12-28T04:36:09.098Z,50.885643
2022-12-28T04:37:09.107Z,50.885559
2022-12-28T04:38:09.095Z,50.885632
2022-12-28T04:39:09.089Z,50.885532
2022-12-28T04:40:09.095Z,50.885544
2022-12-28T04:41:09.076Z,50.885479
2022-12-28T04:42:09.073Z,50.885693
2022-12-28T04:43:09.090Z,50.885605
2022-12-28T04:44:09.108Z,50.885590
2022-12-28T04:45:09.052Z,50.885517
2022-12-28T04:46:09.093Z,50.885536
2022-12-28T04:47:09.014Z,50.885536
2022-12-28T04:48:10.023Z,50.885517
2022-12-28T04:49:09.104Z,50.885513
2022-12-28T04:50:09.010Z,50.885559
2022-12-28T04:51:09.003Z,50.885399
2022-12-28T04:52:09.008Z,50.885838
2022-12-28T04:53:09.004Z,50.885765
2022-12-28T04:54:08.983Z,50.885674
2022-12-28T04:55:09.015Z,50.885635
2022-12-28T04:56:09.994Z,50.885433
2022-12-28T04:57:08.982Z,50.885563
2022-12-28T04:58:08.960Z,50.885605
2022-12-28T04:59:08.945Z,50.885681
2022-12-28T05:00:08.965Z,50.885601
2022-12-28T05:01:09.102Z,50.885529
2022-12-28T05:02:09.174Z,50.885593
2022-12-28T05:03:08.925Z,50.885445
2022-12-28T05:04:08.941Z,50.885498
2022-12-28T05:05:08.911Z,50.885517
2022-12-28T05:06:08.952Z,50.885551
2022-12-28T05:07:08.926Z,50.885464
2022-12-28T05:08:08.906Z,50.885330
2022-12-28T05:09:08.898Z,50.885265
2022-12-28T05:10:08.892Z,50.885406
2022-12-28T05:11:08.924Z,50.885506
2022-12-28T05:12:08.862Z,50.885418
2022-12-28T05:13:08.866Z,50.885735
2022-12-28T05:14:08.883Z,50.885548
2022-12-28T05:15:08.919Z,50.885582
2022-12-28T05:16:08.892Z,50.885559
2022-12-28T05:17:08.879Z,50.885387
2022-12-28T05:18:08.852Z,50.884350
2022-12-28T05:19:08.866Z,50.884602
2022-12-28T05:20:08.858Z,50.884899
2022-12-28T05:21:08.828Z,50.885223
2022-12-28T05:22:08.861Z,50.885487
2022-12-28T05:23:08.783Z,50.885117
2022-12-28T05:24:08.802Z,50.885418
2022-12-28T05:25:08.868Z,50.885551
2022-12-28T05:26:08.795Z,50.885536
2022-12-28T05:27:08.802Z,50.885525
2022-12-28T05:28:08.783Z,50.885483
2022-12-28T05:29:08.753Z,50.885563
2022-12-28T05:30:08.796Z,50.885616
2022-12-28T05:31:08.842Z,50.885647
2022-12-28T05:32:08.790Z,50.885700
2022-12-28T05:33:08.729Z,50.885265
2022-12-28T05:34:08.707Z,50.885410
2022-12-28T05:35:08.754Z,50.885563
2022-12-28T05:36:08.711Z,50.885666
2022-12-28T05:37:08.739Z,50.885811
2022-12-28T05:38:08.706Z,50.885674
2022-12-28T05:39:08.768Z,50.885635
2022-12-28T05:40:08.696Z,50.885551
2022-12-28T05:41:08.683Z,50.885590
2022-12-28T05:42:08.708Z,50.885517
2022-12-28T05:43:08.707Z,50.885506
2022-12-28T05:44:08.700Z,50.885525
2022-12-28T05:45:08.714Z,50.885609
2022-12-28T05:46:08.698Z,50.885590
2022-12-28T05:47:08.680Z,50.885670
2022-12-28T05:48:08.674Z,50.885666
2022-12-28T05:49:08.658Z,50.885654
2022-12-28T05:50:08.670Z,50.885609
2022-12-28T05:51:08.630Z,50.885616
2022-12-28T05:52:08.598Z,50.885559
2022-12-28T05:53:08.609Z,50.885494
2022-12-28T05:54:08.624Z,50.885448
2022-12-28T05:55:08.753Z,50.885548
2022-12-28T05:56:13.870Z,50.885555
2022-12-28T05:57:10.645Z,50.885544
2022-12-28T05:58:08.577Z,50.885567
2022-12-28T05:59:08.603Z,50.885593
2022-12-28T06:00:08.593Z,50.885612
2022-12-28T06:01:08.721Z,50.885544
2022-12-28T06:02:08.757Z,50.885429
2022-12-28T06:03:08.826Z,50.885464
2022-12-28T06:04:08.562Z,50.885498
2022-12-28T06:05:08.574Z,50.885220
2022-12-28T06:06:08.575Z,50.885258
2022-12-28T06:07:08.514Z,50.885235
2022-12-28T06:08:08.500Z,50.885212
2022-12-28T06:09:08.493Z,50.885021
2022-12-28T06:10:08.570Z,50.885170
2022-12-28T06:11:08.618Z,50.885288
2022-12-28T06:12:08.504Z,50.885399
2022-12-28T06:13:09.479Z,50.885483
2022-12-28T06:14:08.498Z,50.885525
2022-12-28T06:15:08.475Z,50.885483
2022-12-28T06:16:08.536Z,50.885475
2022-12-28T06:17:08.508Z,50.885471
2022-12-28T06:18:08.452Z,50.885544
2022-12-28T06:19:08.475Z,50.885521
2022-12-28T06:20:08.437Z,50.885376
2022-12-28T06:21:08.432Z,50.885437
2022-12-28T06:22:08.411Z,50.885529
2022-12-28T06:23:08.648Z,50.885555
2022-12-28T06:24:08.420Z,50.885525
2022-12-28T06:25:08.422Z,50.885525
2022-12-28T06:26:08.406Z,50.885582
2022-12-28T06:27:08.393Z,50.885597
2022-12-28T06:28:08.420Z,50.885555
2022-12-28T06:29:08.395Z,50.885567
2022-12-28T06:30:08.356Z,50.885586
2022-12-28T06:31:08.381Z,50.885563
2022-12-28T06:32:08.426Z,50.885529
2022-12-28T06:33:08.342Z,50.885532
2022-12-28T06:34:08.405Z,50.885551
2022-12-28T06:35:08.310Z,50.885521
2022-12-28T06:36:12.330Z,50.885490
2022-12-28T06:37:09.317Z,50.885574
2022-12-28T06:38:08.312Z,50.885571
2022-12-28T06:39:08.421Z,50.885628
2022-12-28T06:40:08.309Z,50.885498
2022-12-28T06:41:15.564Z,50.885525
2022-12-28T06:42:10.306Z,50.885551
2022-12-28T06:43:08.297Z,50.885544
2022-12-28T06:44:08.302Z,50.885517
2022-12-28T06:45:08.321Z,50.885513
2022-12-28T06:46:08.260Z,50.885513
2022-12-28T06:47:08.257Z,50.885490
2022-12-28T06:48:08.268Z,50.885513
2022-12-28T06:49:08.231Z,50.885529
2022-12-28T06:50:08.253Z,50.885567
2022-12-28T06:51:08.270Z,50.885582
2022-12-28T06:52:08.196Z,50.885605
2022-12-28T06:53:08.188Z,50.885635
2022-12-28T06:54:08.201Z,50.885536
2022-12-28T06:55:08.190Z,50.885517
2022-12-28T06:56:08.198Z,50.885582
2022-12-28T06:57:08.166Z,50.885590
2022-12-28T06:58:08.194Z,50.885590
2022-12-28T06:59:08.183Z,50.885563
2022-12-28T07:00:08.141Z,50.885571
2022-12-28T07:01:08.324Z,50.885498
2022-12-28T07:02:08.295Z,50.885536
2022-12-28T07:03:08.166Z,50.885551
2022-12-28T07:04:08.153Z,50.885612
2022-12-28T07:05:08.094Z,50.885651
2022-12-28T07:06:08.119Z,50.885624
2022-12-28T07:07:08.143Z,50.885563
2022-12-28T07:08:12.568Z,50.885632
2022-12-28T07:09:08.065Z,50.885624
2022-12-28T07:10:08.098Z,50.885658
2022-12-28T07:11:08.088Z,50.885777
2022-12-28T07:12:08.119Z,50.885742
2022-12-28T07:13:08.090Z,50.885735
2022-12-28T07:14:08.044Z,50.885723
2022-12-28T07:15:08.066Z,50.885609
2022-12-28T07:16:08.046Z,50.885616
2022-12-28T07:17:08.035Z,50.885536
2022-12-28T07:18:08.161Z,50.885532
2022-12-28T07:19:08.064Z,50.885468
2022-12-28T07:20:08.037Z,50.885593
2022-12-28T07:21:08.025Z,50.885639
2022-12-28T07:22:08.012Z,50.885639
2022-12-28T07:23:08.022Z,50.885612
2022-12-28T07:24:08.038Z,50.885658
2022-12-28T07:25:08.007Z,50.885529
2022-12-28T07:26:08.019Z,50.885555
2022-12-28T07:27:07.991Z,50.885624
2022-12-28T07:28:07.958Z,50.885487
2022-12-28T07:29:08.052Z,50.885479
2022-12-28T07:30:07.965Z,50.885445
2022-12-28T07:31:08.004Z,50.885563
2022-12-28T07:32:07.946Z,50.885544
2022-12-28T07:33:07.961Z,50.885544
2022-12-28T07:34:07.941Z,50.885574
2022-12-28T07:35:07.931Z,50.885632
2022-12-28T07:36:07.887Z,50.885548
2022-12-28T07:37:07.900Z,50.885639
2022-12-28T07:38:07.879Z,50.885651
2022-12-28T07:39:07.909Z,50.885654
2022-12-28T07:40:07.917Z,50.885567
2022-12-28T07:41:07.877Z,50.885597
2022-12-28T07:42:07.875Z,50.885593
2022-12-28T07:43:07.851Z,50.885513
2022-12-28T07:44:07.865Z,50.885586
2022-12-28T07:45:09.752Z,50.885494
2022-12-28T07:46:07.894Z,50.885296
2022-12-28T07:47:07.857Z,50.885609
2022-12-28T07:48:07.828Z,50.885616
2022-12-28T07:49:07.799Z,50.885654
2022-12-28T07:50:07.835Z,50.885609
2022-12-28T07:51:07.938Z,50.885418
2022-12-28T07:52:07.824Z,50.885433
2022-12-28T07:53:07.807Z,50.885571
2022-12-28T07:54:07.793Z,50.885601
2022-12-28T07:55:07.841Z,50.885590
2022-12-28T07:56:07.800Z,50.885567
2022-12-28T07:57:07.780Z,50.885521
2022-12-28T07:58:07.780Z,50.885674
2022-12-28T07:59:07.775Z,50.885563
2022-12-28T08:00:07.727Z,50.885399
2022-12-28T08:01:07.865Z,50.885391
2022-12-28T08:02:07.975Z,50.885387
2022-12-28T08:03:07.760Z,50.885437
2022-12-28T08:04:07.731Z,50.885639
2022-12-28T08:05:07.790Z,50.885464
2022-12-28T08:06:07.711Z,50.885544
2022-12-28T08:07:07.734Z,50.885632
2022-12-28T08:08:07.685Z,50.885544
2022-12-28T08:09:07.693Z,50.885540
2022-12-28T08:10:07.703Z,50.885647
2022-12-28T08:11:07.695Z,50.885399
2022-12-28T08:12:07.674Z,50.885330
2022-12-28T08:13:07.684Z,50.885490
2022-12-28T08:14:07.681Z,50.885311
2022-12-28T08:15:07.701Z,50.885693
2022-12-28T08:16:07.627Z,50.885777
2022-12-28T08:17:07.599Z,50.885536
2022-12-28T08:18:07.661Z,50.885468
2022-12-28T08:19:07.636Z,50.885162
2022-12-28T08:20:07.604Z,50.885052
2022-12-28T08:21:07.610Z,50.885235
2022-12-28T08:22:07.604Z,50.885307
2022-12-28T08:23:07.582Z,50.885342
2022-12-28T08:24:07.630Z,50.885147
2022-12-28T08:25:07.625Z,50.884735
2022-12-28T08:26:07.560Z,50.884899
2022-12-28T08:27:07.610Z,50.885265
2022-12-28T08:28:07.553Z,50.885311
2022-12-28T08:29:07.600Z,50.885162
2022-12-28T08:30:07.564Z,50.885242
2022-12-28T08:31:07.591Z,50.885399
2022-12-28T08:32:07.571Z,50.885418
2022-12-28T08:33:07.537Z,50.885540
2022-12-28T08:34:07.541Z,50.885685
2022-12-28T08:35:07.611Z,50.885887
2022-12-28T08:36:07.529Z,50.885883
2022-12-28T08:37:07.521Z,50.885857
2022-12-28T08:38:07.489Z,50.885841
2022-12-28T08:39:07.555Z,50.885876
2022-12-28T08:40:07.475Z,50.885921
2022-12-28T08:41:07.490Z,50.885784
2022-12-28T08:42:07.486Z,50.885441
2022-12-28T08:43:07.451Z,50.885544
2022-12-28T08:44:07.469Z,50.885559
2022-12-28T08:45:07.435Z,50.885494
2022-12-28T08:46:07.584Z,50.885693
2022-12-28T08:47:07.464Z,50.885620
2022-12-28T08:48:07.412Z,50.885715
2022-12-28T08:49:07.420Z,50.885647
2022-12-28T08:50:07.768Z,50.885662
2022-12-28T08:51:07.537Z,50.885719
2022-12-28T08:52:07.406Z,50.885784
2022-12-28T08:53:07.380Z,50.885483
2022-12-28T08:54:07.363Z,50.885555
2022-12-28T08:55:07.375Z,50.885719
2022-12-28T08:56:07.416Z,50.885761
2022-12-28T08:57:07.532Z,50.885883
2022-12-28T08:58:07.392Z,50.885876
2022-12-28T08:59:07.385Z,50.885876
2022-12-28T09:00:07.377Z,50.885494
2022-12-28T09:01:07.464Z,50.885517
2022-12-28T09:02:07.430Z,50.885487
2022-12-28T09:03:07.434Z,50.885429
2022-12-28T09:04:07.297Z,50.885525
2022-12-28T09:05:07.323Z,50.885536
2022-12-28T09:06:07.286Z,50.885567
2022-12-28T09:07:07.298Z,50.885609
2022-12-28T09:08:07.318Z,50.885609
2022-12-28T09:09:07.548Z,50.885597
2022-12-28T09:10:07.343Z,50.885548
2022-12-28T09:11:07.236Z,50.885536
2022-12-28T09:12:07.259Z,50.885647
2022-12-28T09:13:07.285Z,50.885826
2022-12-28T09:14:07.268Z,50.885807
2022-12-28T09:15:07.265Z,50.885975
2022-12-28T09:16:07.251Z,50.885937
2022-12-28T09:17:07.235Z,50.885746
2022-12-28T09:18:07.201Z,50.885582
2022-12-28T09:19:07.224Z,50.885593
2022-12-28T09:20:07.192Z,50.885540
2022-12-28T09:21:07.215Z,50.885548
2022-12-28T09:22:07.198Z,50.885651
2022-12-28T09:23:07.201Z,50.885643
2022-12-28T09:24:07.256Z,50.885841
2022-12-28T09:25:07.183Z,50.885792
2022-12-28T09:26:08.150Z,50.885868
2022-12-28T09:27:07.125Z,50.885738
2022-12-28T09:28:07.164Z,50.885548
2022-12-28T09:29:07.173Z,50.885548
2022-12-28T09:30:07.258Z,50.885582
2022-12-28T09:31:07.173Z,50.885529
2022-12-28T09:32:07.149Z,50.885452
2022-12-28T09:33:07.129Z,50.885448
2022-12-28T09:35:09.146Z,50.885448
2022-12-28T09:36:07.096Z,50.885620
2022-12-28T09:37:07.104Z,50.885670
2022-12-28T09:38:07.064Z,50.885494
2022-12-28T09:39:07.129Z,50.885426
2022-12-28T09:40:07.039Z,50.885544
2022-12-28T09:41:07.072Z,50.885361
2022-12-28T09:42:07.070Z,50.885567
2022-12-28T09:43:07.044Z,50.885593
2022-12-28T09:44:07.039Z,50.885670
2022-12-28T09:45:07.031Z,50.885590
2022-12-28T09:46:07.070Z,50.885612
2022-12-28T09:47:07.045Z,50.885532
2022-12-28T09:48:07.022Z,50.885384
2022-12-28T09:49:06.972Z,50.885521
2022-12-28T09:50:06.967Z,50.885532
2022-12-28T09:51:07.078Z,50.885612
2022-12-28T09:52:06.971Z,50.885586
2022-12-28T09:53:07.092Z,50.885670
2022-12-28T09:54:06.953Z,50.885586
2022-12-28T09:55:06.973Z,50.885555
2022-12-28T09:56:06.954Z,50.885601
2022-12-28T09:57:07.083Z,50.885235
2022-12-28T09:58:06.940Z,50.885387
2022-12-28T09:59:06.954Z,50.885555
2022-12-28T10:00:06.940Z,50.885365
2022-12-28T10:01:06.922Z,50.885529
2022-12-28T10:02:07.122Z,50.885502
2022-12-28T10:03:06.956Z,50.885448
2022-12-28T10:04:06.910Z,50.885448
2022-12-28T10:05:06.917Z,50.885506
2022-12-28T10:06:06.893Z,50.885509
2022-12-28T10:07:06.897Z,50.885555
2022-12-28T10:08:06.914Z,50.885483
2022-12-28T10:09:06.862Z,50.885468
2022-12-28T10:10:06.863Z,50.885330
2022-12-28T10:11:06.871Z,50.885468
2022-12-28T10:12:07.833Z,50.885433
2022-12-28T10:13:16.564Z,50.885342
2022-12-28T10:14:08.851Z,50.885437
2022-12-28T10:15:06.867Z,50.885429
2022-12-28T10:16:06.855Z,50.885365
2022-12-28T10:17:06.793Z,50.885292
2022-12-28T10:18:06.810Z,50.885246
2022-12-28T10:19:06.867Z,50.885391
2022-12-28T10:20:06.795Z,50.885418
2022-12-28T10:21:06.810Z,50.885426
2022-12-28T10:22:06.809Z,50.885292
2022-12-28T10:23:06.795Z,50.885269
2022-12-28T10:24:35.138Z,50.885323
2022-12-28T10:25:08.748Z,50.885349
2022-12-28T10:26:06.771Z,50.885365
2022-12-28T10:27:06.761Z,50.885395
2022-12-28T10:28:06.731Z,50.885509
2022-12-28T10:29:06.744Z,50.885597
2022-12-28T10:30:06.766Z,50.885445
2022-12-28T10:31:06.773Z,50.885448
2022-12-28T10:32:06.736Z,50.885555
2022-12-28T10:33:09.760Z,50.885536
2022-12-28T10:34:07.726Z,50.885536
2022-12-28T10:35:06.770Z,50.885563
2022-12-28T10:36:06.692Z,50.885551
2022-12-28T10:37:06.694Z,50.885605
2022-12-28T10:38:07.712Z,50.885612
2022-12-28T10:39:06.689Z,50.885605
2022-12-28T10:40:06.655Z,50.885605
2022-12-28T10:41:06.684Z,50.885593
2022-12-28T10:42:06.666Z,50.885571
2022-12-28T10:43:10.782Z,50.885628
2022-12-28T10:44:37.919Z,50.885628
2022-12-28T10:45:07.639Z,50.885651
2022-12-28T10:46:06.699Z,50.885700
2022-12-28T10:47:06.676Z,50.885643
2022-12-28T10:48:06.635Z,50.885612
2022-12-28T10:49:09.824Z,50.885544
2022-12-28T10:50:37.549Z,50.885632
2022-12-28T10:51:08.644Z,50.885616
2022-12-28T10:52:06.607Z,50.885494
2022-12-28T10:53:06.617Z,50.885365
2022-12-28T10:54:06.646Z,50.885685
2022-12-28T10:55:08.099Z,50.885536
2022-12-28T10:56:06.583Z,50.885540
2022-12-28T10:57:06.562Z,50.885559
2022-12-28T10:59:08.561Z,50.885635
2022-12-28T11:00:06.550Z,50.885483
2022-12-28T11:01:07.107Z,50.885532
2022-12-28T11:02:06.733Z,50.885601
2022-12-28T11:03:06.592Z,50.885532
2022-12-28T11:04:06.507Z,50.885441
2022-12-28T11:05:06.533Z,50.885548
2022-12-28T11:06:06.506Z,50.885330
2022-12-28T11:07:06.520Z,50.885525
2022-12-28T11:08:06.511Z,50.885582
2022-12-28T11:09:06.504Z,50.885593
2022-12-28T11:10:06.518Z,50.885517
2022-12-28T11:11:06.480Z,50.885616
2022-12-28T11:12:06.485Z,50.885536
2022-12-28T11:13:06.504Z,50.885643
2022-12-28T11:14:06.482Z,50.885700
2022-12-28T11:15:06.507Z,50.885468
2022-12-28T11:16:06.442Z,50.885250
2022-12-28T11:17:06.461Z,50.885433
2022-12-28T11:18:06.468Z,50.885548
2022-12-28T11:19:06.608Z,50.885708
2022-12-28T11:20:06.451Z,50.885880
2022-12-28T11:21:06.471Z,50.885853
2022-12-28T11:22:06.400Z,50.885830
2022-12-28T11:23:06.406Z,50.885696
2022-12-28T11:24:06.476Z,50.885628
2022-12-28T11:25:06.400Z,50.885586
2022-12-28T11:26:06.451Z,50.885632